createdAt,value
2023-02-08T00:11:02.412Z,-10.40
2023-02-08T00:13:30.707Z,-10.20
2023-02-08T00:15:58.166Z,-10.50
2023-02-08T00:18:25.568Z,-10.50
2023-02-08T00:20:53.088Z,-10.40
2023-02-08T00:23:20.339Z,-10.60
2023-02-08T00:25:47.567Z,-10.50
2023-02-08T00:28:17.887Z,-10.30
2023-02-08T00:30:45.801Z,-10.00
2023-02-08T00:33:13.280Z,-10.30
2023-02-08T00:35:40.567Z,-10.70
2023-02-08T00:38:07.836Z,-10.70
2023-02-08T00:40:35.365Z,-10.50
2023-02-08T00:43:03.008Z,-10.70
2023-02-08T00:45:32.557Z,-10.10
2023-02-08T00:47:59.973Z,-10.80
2023-02-08T00:50:27.312Z,-10.90
2023-02-08T00:52:54.468Z,-11.00
2023-02-08T00:55:21.729Z,-10.90
2023-02-08T00:57:49.240Z,-11.00
2023-02-08T01:00:16.991Z,-11.10
2023-02-08T01:02:44.557Z,-11.10
2023-02-08T01:05:11.891Z,-11.10
2023-02-08T01:07:40.027Z,-11.10
2023-02-08T01:10:08.871Z,-10.80
2023-02-08T01:12:36.247Z,-11.10
2023-02-08T01:15:03.838Z,-11.10
2023-02-08T01:17:31.195Z,-11.00
2023-02-08T01:19:58.543Z,-11.00
2023-02-08T01:22:25.716Z,-10.00
2023-02-08T01:24:53.044Z,-11.00
2023-02-08T01:27:20.291Z,-11.00
2023-02-08T01:29:47.411Z,-11.20
2023-02-08T01:32:14.584Z,-11.20
2023-02-08T01:34:54.258Z,-10.90
2023-02-08T01:37:21.472Z,-11.40
2023-02-08T01:40:08.058Z,-11.40
2023-02-08T01:45:18.206Z,-11.40
2023-02-08T01:47:54.709Z,-11.50
2023-02-08T01:50:31.109Z,-11.50
2023-02-08T01:52:59.541Z,-11.50
2023-02-08T01:55:40.986Z,-11.30
2023-02-08T01:58:12.424Z,-11.40
2023-02-08T02:00:40.300Z,-11.40
2023-02-08T02:03:08.497Z,-11.50
2023-02-08T02:05:48.335Z,-11.40
2023-02-08T02:08:16.158Z,-11.60
2023-02-08T02:10:44.244Z,-11.60
2023-02-08T02:13:23.263Z,-10.70
2023-02-08T02:15:52.136Z,-11.60
2023-02-08T02:18:31.953Z,-11.50
2023-02-08T02:21:14.192Z,-11.40
2023-02-08T02:30:28.385Z,-11.60
2023-02-08T02:33:10.187Z,-11.40
2023-02-08T02:52:09.713Z,-11.90
2023-02-08T02:55:02.877Z,-11.90
2023-02-08T02:57:33.636Z,-11.00
2023-02-08T03:00:06.140Z,-11.90
2023-02-08T03:02:33.400Z,-11.90
2023-02-08T03:05:00.578Z,-11.80
2023-02-08T03:07:59.675Z,-11.20
2023-02-08T03:10:52.701Z,-11.80
2023-02-08T03:13:46.401Z,-11.90
2023-02-08T03:16:31.733Z,-11.80
2023-02-08T03:19:23.084Z,-11.70
2023-02-08T03:27:41.542Z,-12.10
2023-02-08T03:43:47.932Z,-11.50
2023-02-08T03:46:42.882Z,-12.10
2023-02-08T03:49:20.546Z,-11.30
2023-02-08T03:51:49.516Z,-12.00
2023-02-08T03:54:26.563Z,-12.30
2023-02-08T03:57:19.980Z,-12.40
2023-02-08T04:00:02.400Z,-12.40
2023-02-08T04:02:37.727Z,-12.40
2023-02-08T04:05:07.631Z,-12.40
2023-02-08T04:07:35.072Z,-12.40
2023-02-08T04:10:03.980Z,-12.30
2023-02-08T04:12:31.259Z,-12.30
2023-02-08T04:14:58.636Z,-11.90
2023-02-08T04:17:25.888Z,-12.30
2023-02-08T04:19:53.031Z,-12.40
2023-02-08T04:22:20.123Z,-12.50
2023-02-08T04:24:47.411Z,-12.10
2023-02-08T04:27:14.778Z,-12.40
2023-02-08T04:29:42.022Z,-12.40
2023-02-08T04:32:09.272Z,-12.20
2023-02-08T04:34:36.517Z,-12.30
2023-02-08T04:37:03.895Z,-12.20
2023-02-08T04:39:31.233Z,-12.30
2023-02-08T04:41:58.434Z,-11.90
2023-02-08T04:44:25.665Z,-11.70
2023-02-08T04:46:52.977Z,-11.50
2023-02-08T04:49:20.566Z,-12.40
2023-02-08T04:52:23.419Z,-12.30
2023-02-08T04:54:50.621Z,-12.40
2023-02-08T04:57:36.371Z,-11.90
2023-02-08T05:00:04.598Z,-12.60
2023-02-08T05:02:31.923Z,-12.50
2023-02-08T05:04:59.137Z,-12.60
2023-02-08T05:07:26.319Z,-12.00
2023-02-08T05:09:53.501Z,-12.10
2023-02-08T05:12:20.776Z,-12.50
2023-02-08T05:14:48.388Z,-12.50
2023-02-08T05:17:15.843Z,-12.50
2023-02-08T05:19:43.496Z,-11.40
2023-02-08T05:22:10.673Z,-12.20
2023-02-08T05:24:37.922Z,-11.60
2023-02-08T05:27:05.085Z,-12.30
2023-02-08T05:29:32.663Z,-12.40
2023-02-08T06:25:59.606Z,-12.90
2023-02-08T06:28:26.955Z,-12.90
2023-02-08T06:30:54.223Z,-12.50
2023-02-08T06:33:21.497Z,-11.90
2023-02-08T06:35:52.431Z,-13.00
2023-02-08T06:38:20.674Z,-13.00
2023-02-08T06:40:49.678Z,-13.00
2023-02-08T06:43:17.477Z,-13.00
2023-02-08T06:45:46.622Z,-13.00
2023-02-08T06:48:14.556Z,-13.00
2023-02-08T06:50:59.233Z,-13.00
2023-02-08T06:53:28.648Z,-13.10
2023-02-08T06:55:56.064Z,-13.20
2023-02-08T06:58:25.189Z,-13.20
2023-02-08T07:00:52.617Z,-13.20
2023-02-08T07:03:19.958Z,-13.20
2023-02-08T07:06:03.491Z,-13.20
2023-02-08T07:08:35.161Z,-12.90
2023-02-08T07:11:11.791Z,-13.10
2023-02-08T07:13:39.762Z,-13.00
2023-02-08T07:16:09.774Z,-13.00
2023-02-08T07:18:37.431Z,-13.10
2023-02-08T07:21:05.268Z,-13.00
2023-02-08T07:23:33.072Z,-12.90
2023-02-08T07:26:04.143Z,-12.80
2023-02-08T07:28:31.657Z,-12.70
2023-02-08T07:30:59.300Z,-12.10
2023-02-08T07:33:26.851Z,-12.50
2023-02-08T07:35:54.077Z,-12.30
2023-02-08T07:38:45.368Z,-12.20
2023-02-08T07:41:18.694Z,-12.00
2023-02-08T07:43:45.964Z,-12.00
2023-02-08T07:46:22.261Z,-11.90
2023-02-08T07:49:43.990Z,-11.80
2023-02-08T07:52:11.265Z,-11.50
2023-02-08T07:54:38.451Z,-11.60
2023-02-08T07:57:05.666Z,-11.60
2023-02-08T07:59:32.932Z,-11.30
2023-02-08T08:02:00.246Z,-11.20
2023-02-08T08:04:27.728Z,-11.20
2023-02-08T08:06:54.965Z,-11.20
2023-02-08T08:09:22.191Z,-11.10
2023-02-08T08:11:49.364Z,-10.90
2023-02-08T08:14:16.540Z,-10.80
2023-02-08T08:16:43.715Z,-10.90
2023-02-08T08:19:10.944Z,-10.80
2023-02-08T08:21:38.324Z,-10.70
2023-02-08T08:24:05.896Z,-10.50
2023-02-08T08:26:33.405Z,-10.50
2023-02-08T08:29:01.018Z,-10.30
2023-02-08T08:31:28.678Z,-10.20
2023-02-08T08:33:56.207Z,-10.10
2023-02-08T08:36:23.612Z,-9.90
2023-02-08T08:38:52.112Z,-10.00
2023-02-08T08:41:19.425Z,-9.90
2023-02-08T08:43:46.800Z,-9.80
2023-02-08T08:46:14.672Z,-9.80
2023-02-08T08:48:41.982Z,-9.80
2023-02-08T08:51:09.445Z,-9.80
2023-02-08T08:53:37.045Z,-9.70
2023-02-08T08:56:05.331Z,-9.60
2023-02-08T08:58:33.210Z,-9.40
2023-02-08T09:01:01.403Z,-9.20
2023-02-08T09:03:29.804Z,-9.10
2023-02-08T09:05:57.440Z,-9.00
2023-02-08T09:08:24.632Z,-8.90
2023-02-08T09:10:52.219Z,-8.80
2023-02-08T09:13:19.560Z,-8.70
2023-02-08T09:15:48.390Z,-8.60
2023-02-08T09:18:16.480Z,-8.60
2023-02-08T09:20:44.045Z,-8.50
2023-02-08T09:23:12.212Z,-8.40
2023-02-08T09:25:39.566Z,-8.30
2023-02-08T09:28:07.164Z,-8.20
2023-02-08T09:30:36.033Z,-8.10
2023-02-08T09:33:03.385Z,-8.10
2023-02-08T09:35:30.838Z,-8.10
2023-02-08T09:37:58.581Z,-8.00
2023-02-08T09:40:38.106Z,-8.00
2023-02-08T09:43:55.827Z,-7.90
2023-02-08T09:46:28.231Z,-7.90
2023-02-08T09:49:01.606Z,-7.90
2023-02-08T09:51:51.251Z,-7.90
2023-02-08T09:54:41.673Z,-7.90
2023-02-08T09:57:26.492Z,-7.70
2023-02-08T10:00:11.866Z,-7.70
2023-02-08T10:02:43.359Z,-7.60
2023-02-08T10:05:25.989Z,-7.60
2023-02-08T10:08:01.889Z,-7.50
2023-02-08T10:11:13.967Z,-7.50
2023-02-08T10:14:35.191Z,-7.40
2023-02-08T10:17:52.524Z,-7.20
2023-02-08T10:20:51.717Z,-7.10
2023-02-08T10:23:37.072Z,-7.00
2023-02-08T10:26:18.211Z,-6.90
2023-02-08T10:29:19.892Z,-6.80
2023-02-08T10:32:27.448Z,-6.70
2023-02-08T10:35:13.490Z,-6.60
2023-02-08T10:37:44.716Z,-6.50
2023-02-08T10:40:37.702Z,-6.40
2023-02-08T10:43:33.895Z,-6.30
2023-02-08T10:46:32.600Z,-6.20
2023-02-08T10:49:22.798Z,-6.00
2023-02-08T10:51:50.233Z,-5.90
2023-02-08T10:54:17.613Z,-5.90
2023-02-08T10:56:50.037Z,-5.90
2023-02-08T10:59:22.849Z,-5.70
2023-02-08T11:01:51.290Z,-5.60
2023-02-08T11:04:19.667Z,-5.50
2023-02-08T11:06:49.488Z,-5.40
2023-02-08T11:09:30.506Z,-5.40
2023-02-08T11:12:02.380Z,-5.30
2023-02-08T11:14:53.370Z,-5.30
2023-02-08T11:17:31.194Z,-5.30
2023-02-08T11:20:00.100Z,-5.20
2023-02-08T11:22:30.306Z,-5.20
2023-02-08T11:25:05.689Z,-5.00
2023-02-08T11:27:37.955Z,-4.90
2023-02-08T11:30:14.383Z,-4.90
2023-02-08T11:32:43.952Z,-4.90
2023-02-08T11:35:23.737Z,-4.90
2023-02-08T11:37:55.227Z,-4.80
2023-02-08T11:40:36.415Z,-4.80
2023-02-08T11:43:05.252Z,-4.70
2023-02-08T11:45:36.138Z,-4.70
2023-02-08T11:48:05.405Z,-4.60
2023-02-08T11:50:37.646Z,-4.40
2023-02-08T11:53:20.875Z,-4.40
2023-02-08T11:56:17.436Z,-4.20
2023-02-08T11:59:18.944Z,-3.50
2023-02-08T12:01:46.686Z,-2.30
2023-02-08T12:04:17.975Z,-1.40
2023-02-08T12:07:17.709Z,-0.50
2023-02-08T12:16:27.508Z,2.70
2023-02-08T12:19:22.149Z,3.20
2023-02-08T12:22:05.107Z,3.90
2023-02-08T12:24:54.590Z,4.30
2023-02-08T12:27:36.693Z,4.30
2023-02-08T12:30:19.562Z,4.20
2023-02-08T12:33:11.241Z,4.40
2023-02-08T12:36:03.671Z,4.00
2023-02-08T12:39:19.695Z,3.40
2023-02-08T12:42:26.673Z,3.30
2023-02-08T12:45:37.466Z,3.80
2023-02-08T12:48:25.184Z,3.70
2023-02-08T12:51:18.836Z,3.00
2023-02-08T12:56:39.428Z,4.00
2023-02-08T12:59:13.878Z,4.30
2023-02-08T13:01:48.481Z,3.90
2023-02-08T13:04:28.164Z,3.80
2023-02-08T13:07:11.640Z,3.70
2023-02-08T13:10:00.417Z,4.30
2023-02-08T13:12:36.113Z,4.40
2023-02-08T13:15:30.268Z,4.30
2023-02-08T13:18:02.843Z,3.30
2023-02-08T13:20:49.920Z,1.60
2023-02-08T13:23:27.073Z,0.40
2023-02-08T13:26:37.915Z,-0.40
2023-02-08T13:29:05.694Z,-1.10
2023-02-08T13:31:41.134Z,-1.70
2023-02-08T13:34:37.701Z,-2.10
2023-02-08T13:37:25.491Z,-2.40
2023-02-08T13:40:29.681Z,-2.60
2023-02-08T13:43:08.626Z,-2.90
2023-02-08T13:45:44.106Z,-3.10
2023-02-08T13:48:16.840Z,-3.30
2023-02-08T13:50:46.880Z,-3.30
2023-02-08T13:53:16.993Z,-3.40
2023-02-08T13:55:57.892Z,-3.40
2023-02-08T13:58:46.387Z,-3.40
2023-02-08T14:01:22.675Z,-3.50
2023-02-08T14:04:08.264Z,-3.50
2023-02-08T14:06:55.958Z,-3.60
2023-02-08T14:09:43.845Z,-3.60
2023-02-08T14:12:41.198Z,-3.70
2023-02-08T14:15:35.157Z,-3.80
2023-02-08T14:18:03.622Z,-3.70
2023-02-08T14:20:37.870Z,-3.80
2023-02-08T14:23:23.240Z,-3.80
2023-02-08T14:25:55.617Z,-3.80
2023-02-08T14:28:36.965Z,-3.90
2023-02-08T14:31:10.224Z,-3.90
2023-02-08T14:33:50.005Z,-4.00
2023-02-08T14:36:33.496Z,-4.00
2023-02-08T14:39:23.679Z,-4.00
2023-02-08T14:41:55.147Z,-4.10
2023-02-08T14:44:40.616Z,-4.00
2023-02-08T14:47:25.908Z,-4.10
2023-02-08T14:50:05.929Z,-4.20
2023-02-08T14:52:35.479Z,-4.40
2023-02-08T14:55:18.416Z,-4.50
2023-02-08T14:57:46.403Z,-4.50
2023-02-08T15:00:25.478Z,-4.50
2023-02-08T15:02:56.096Z,-4.50
2023-02-08T15:05:40.529Z,-4.60
2023-02-08T15:08:07.974Z,-4.60
2023-02-08T15:10:41.550Z,-4.70
2023-02-08T15:13:23.905Z,-4.70
2023-02-08T15:15:55.924Z,-4.80
2023-02-08T15:18:30.528Z,-4.90
2023-02-08T15:21:04.373Z,-4.90
2023-02-08T15:23:31.936Z,-5.00
2023-02-08T15:26:06.720Z,-5.00
2023-02-08T15:28:37.245Z,-5.00
2023-02-08T15:31:09.874Z,-5.10
2023-02-08T15:33:41.988Z,-5.10
2023-02-08T15:36:21.502Z,-5.10
2023-02-08T15:38:49.381Z,-5.20
2023-02-08T15:41:32.779Z,-5.20
2023-02-08T15:44:18.917Z,-5.20
2023-02-08T15:46:48.909Z,-5.20
2023-02-08T15:49:30.816Z,-5.20
2023-02-08T15:51:59.826Z,-5.20
2023-02-08T15:54:27.769Z,-5.20
2023-02-08T15:57:09.515Z,-5.20
2023-02-08T15:59:40.318Z,-5.20
2023-02-08T16:02:24.763Z,-5.20
2023-02-08T16:04:52.416Z,-5.30
2023-02-08T16:07:33.808Z,-5.30
2023-02-08T16:10:01.686Z,-5.30
2023-02-08T16:12:29.597Z,-5.30
2023-02-08T16:14:57.731Z,-5.40
2023-02-08T16:17:44.558Z,-5.50
2023-02-08T16:20:34.150Z,-5.60
2023-02-08T16:23:33.686Z,-5.70
2023-02-08T16:26:55.331Z,-5.80
2023-02-08T16:29:35.103Z,-6.10
2023-02-08T16:32:27.117Z,-6.20
2023-02-08T16:34:54.894Z,-6.30
2023-02-08T16:37:34.066Z,-6.40
2023-02-08T16:40:39.644Z,-6.50
2023-02-08T16:43:30.244Z,-6.60
2023-02-08T16:46:21.958Z,-6.70
2023-02-08T16:48:55.871Z,-6.70
2023-02-08T16:51:34.245Z,-6.80
2023-02-08T16:54:07.084Z,-6.70
2023-02-08T16:56:39.200Z,-6.70
2023-02-08T16:59:07.187Z,-6.70
2023-02-08T17:01:42.665Z,-6.80
2023-02-08T17:04:10.366Z,-6.80
2023-02-08T17:06:41.765Z,-7.00
2023-02-08T17:09:13.053Z,-7.00
2023-02-08T17:11:41.573Z,-7.00
2023-02-08T17:14:09.374Z,-7.10
2023-02-08T17:16:38.204Z,-7.40
2023-02-08T17:19:06.290Z,-7.50
2023-02-08T17:24:01.370Z,-7.60
2023-02-08T17:26:34.770Z,-7.60
2023-02-08T17:29:02.036Z,-7.70
2023-02-08T17:31:32.666Z,-7.80
2023-02-08T17:34:00.206Z,-7.80
2023-02-08T17:36:29.820Z,-7.80
2023-02-08T17:38:57.565Z,-7.80
2023-02-08T17:41:24.995Z,-7.90
2023-02-08T17:43:54.468Z,-8.00
2023-02-08T17:46:28.977Z,-8.00
2023-02-08T17:48:58.286Z,-8.00
2023-02-08T17:51:25.986Z,-8.10
2023-02-08T17:53:53.650Z,-8.20
2023-02-08T17:56:24.570Z,-8.20
2023-02-08T17:58:53.745Z,-8.20
2023-02-08T18:01:26.116Z,-8.30
2023-02-08T18:03:54.303Z,-8.30
2023-02-08T18:06:22.620Z,-8.30
2023-02-08T18:08:49.987Z,-8.30
2023-02-08T18:11:20.121Z,-8.50
2023-02-08T18:13:55.271Z,-8.50
2023-02-08T18:16:27.505Z,-8.50
2023-02-08T18:18:58.116Z,-8.50
2023-02-08T18:21:26.161Z,-8.60
2023-02-08T18:23:53.774Z,-8.80
2023-02-08T18:26:25.302Z,-8.60
2023-02-08T18:28:53.080Z,-8.80
2023-02-08T18:31:21.227Z,-8.80
2023-02-08T18:33:50.753Z,-8.90
2023-02-08T18:36:21.087Z,-9.00
2023-02-08T18:38:52.423Z,-8.90
2023-02-08T18:41:25.427Z,-8.90
2023-02-08T18:43:54.562Z,-9.00
2023-02-08T18:46:24.846Z,-9.00
2023-02-08T18:48:53.351Z,-8.90
2023-02-08T18:51:23.389Z,-9.00
2023-02-08T18:53:55.196Z,-9.20
2023-02-08T18:56:26.776Z,-9.20
2023-02-08T18:58:58.264Z,-9.20
2023-02-08T19:01:25.844Z,-9.10
2023-02-08T19:03:54.505Z,-9.20
2023-02-08T19:06:26.074Z,-9.30
2023-02-08T19:08:56.508Z,-9.30
2023-02-08T19:11:31.398Z,-9.30
2023-02-08T19:14:02.600Z,-9.30
2023-02-08T19:16:33.174Z,-9.10
2023-02-08T19:19:00.941Z,-9.30
2023-02-08T19:21:29.938Z,-9.30
2023-02-08T19:23:58.342Z,-9.30
2023-02-08T19:26:32.618Z,-9.30
2023-02-08T19:29:03.065Z,-9.30
2023-02-08T19:31:31.150Z,-9.20
2023-02-08T19:34:01.098Z,-9.30
2023-02-08T19:36:46.501Z,-9.30
2023-02-08T19:39:18.994Z,-9.40
2023-02-08T19:41:47.666Z,-9.20
2023-02-08T19:44:18.871Z,-9.30
2023-02-08T19:46:55.641Z,-9.50
2023-02-08T19:49:24.437Z,-9.60
2023-02-08T19:51:52.661Z,-9.60
2023-02-08T19:54:21.504Z,-9.60
2023-02-08T19:56:49.126Z,-9.50
2023-02-08T19:59:24.406Z,-9.60
2023-02-08T20:01:53.037Z,-9.80
2023-02-08T20:04:21.739Z,-9.90
2023-02-08T20:06:53.083Z,-9.90
2023-02-08T20:09:21.509Z,-9.90
2023-02-08T20:11:57.877Z,-9.90
2023-02-08T20:14:28.451Z,-9.80
2023-02-08T20:16:56.691Z,-9.80
2023-02-08T20:19:24.825Z,-9.70
2023-02-08T20:21:53.003Z,-9.70
2023-02-08T20:24:20.552Z,-9.70
2023-02-08T20:26:49.205Z,-9.70
2023-02-08T20:29:17.417Z,-9.80
2023-02-08T20:34:17.870Z,-10.10
2023-02-08T20:36:57.489Z,-10.20
2023-02-08T20:39:28.996Z,-10.10
2023-02-08T20:41:56.149Z,-10.10
2023-02-08T20:44:23.362Z,-10.00
2023-02-08T20:46:50.666Z,-10.10
2023-02-08T20:49:18.022Z,-10.20
2023-02-08T20:51:45.249Z,-10.10
2023-02-08T20:54:12.591Z,-10.20
2023-02-08T20:56:40.043Z,-10.40
2023-02-08T20:59:12.029Z,-10.40
2023-02-08T21:01:39.500Z,-10.20
2023-02-08T21:04:06.974Z,-10.20
2023-02-08T21:06:37.249Z,-10.00
2023-02-08T21:09:13.038Z,-10.00
2023-02-08T21:11:40.830Z,-10.20
2023-02-08T21:14:10.486Z,-10.20
2023-02-08T21:16:38.475Z,-10.30
2023-02-08T21:19:05.807Z,-10.20
2023-02-08T21:21:33.147Z,-10.20
2023-02-08T21:24:00.365Z,-10.40
2023-02-08T21:26:28.279Z,-10.30
2023-02-08T21:28:57.280Z,-10.30
2023-02-08T21:31:25.583Z,-10.20
2023-02-08T21:33:53.614Z,-10.30
2023-02-08T21:36:24.621Z,-10.50
2023-02-08T21:38:52.066Z,-10.60
2023-02-08T21:41:24.747Z,-10.60
2023-02-08T21:43:56.401Z,-10.50
2023-02-08T21:46:23.790Z,-10.40
2023-02-08T21:48:52.187Z,-10.40
2023-02-08T21:51:21.226Z,-10.50
2023-02-08T21:53:48.444Z,-10.60
2023-02-08T21:56:15.916Z,-10.60
2023-02-08T22:01:10.852Z,-10.70
2023-02-08T22:03:38.122Z,-10.50
2023-02-08T22:06:05.687Z,-10.40
2023-02-08T22:08:32.895Z,-10.70
2023-02-08T22:11:00.507Z,-10.70
2023-02-08T22:13:28.086Z,-10.70
2023-02-08T22:15:55.307Z,-10.80
2023-02-08T22:18:22.854Z,-10.80
2023-02-08T22:20:54.173Z,-11.00
2023-02-08T22:23:22.007Z,-11.10
2023-02-08T22:25:49.213Z,-11.00
2023-02-08T22:28:16.534Z,-10.80
2023-02-08T22:30:48.746Z,-10.80
2023-02-08T22:33:16.169Z,-10.80
2023-02-08T22:35:43.349Z,-10.80
2023-02-08T22:38:10.585Z,-10.80
2023-02-08T22:40:40.929Z,-11.00
2023-02-08T22:43:08.181Z,-10.90
2023-02-08T22:45:35.537Z,-10.90
2023-02-08T22:48:02.922Z,-11.10
2023-02-08T22:52:57.817Z,-11.00
2023-02-08T22:55:25.043Z,-11.00
2023-02-08T22:57:52.294Z,-11.00
2023-02-08T23:00:19.508Z,-11.20
2023-02-08T23:02:46.774Z,-11.30
2023-02-08T23:05:14.104Z,-11.20
2023-02-08T23:07:41.436Z,-11.20
2023-02-08T23:10:10.209Z,-11.30
2023-02-08T23:12:37.504Z,-11.40
2023-02-08T23:15:05.214Z,-11.20
2023-02-08T23:17:32.486Z,-11.30
2023-02-08T23:20:00.008Z,-11.30
2023-02-08T23:22:27.289Z,-11.40
2023-02-08T23:24:54.523Z,-11.40
2023-02-08T23:27:21.682Z,-11.10
2023-02-08T23:29:49.094Z,-11.20
2023-02-08T23:32:16.380Z,-11.30
2023-02-08T23:34:43.598Z,-11.30
2023-02-08T23:37:10.837Z,-11.10
2023-02-08T23:39:38.151Z,-11.50
2023-02-08T23:42:05.482Z,-11.40
2023-02-08T23:44:32.635Z,-11.60
2023-02-08T23:49:27.724Z,-11.70
2023-02-08T23:51:54.957Z,-11.60
2023-02-08T23:54:22.360Z,-11.40
2023-02-08T23:56:49.564Z,-11.20
2023-02-08T23:59:16.751Z,-11.20
